Time;durP1;ratioP1;P1;durP2;ratioP2;P2;SDS_P1;SDS_P2;PMS_P1;PMS_P2;Temp;Humidity;BMP_temperature;BMP_pressure;BME280_temperature;BME280_humidity;BME280_pressure;Samples;Min_cycle;Max_cycle;Signal;HPM_P1;HPM_P2
2022/09/16 00:00:24;;;;;;;2.53;0.80;;;16.00;92.20;;;;;;5022546;28;20079;-87
2022/09/16 00:02:53;;;;;;;2.80;1.05;;;16.00;92.20;;;;;;5019455;28;20087;-82
2022/09/16 00:05:19;;;;;;;3.80;1.08;;;16.00;92.20;;;;;;5019272;28;20026;-84
2022/09/16 00:07:46;;;;;;;2.03;0.95;;;16.00;92.20;;;;;;5002872;28;20527;-82
2022/09/16 00:10:12;;;;;;;2.30;0.95;;;16.00;92.20;;;;;;5030022;28;20056;-83
2022/09/16 00:12:39;;;;;;;6.15;1.27;;;15.90;92.20;;;;;;5040393;28;20076;-83
2022/09/16 00:15:05;;;;;;;2.20;0.80;;;15.90;92.20;;;;;;5002551;28;20088;-83
2022/09/16 00:17:31;;;;;;;2.60;0.82;;;15.90;92.20;;;;;;5002303;28;20025;-84
2022/09/16 00:19:59;;;;;;;2.40;0.90;;;15.90;92.30;;;;;;5019005;28;20109;-82
2022/09/16 00:22:27;;;;;;;5.13;1.30;;;15.90;92.30;;;;;;5035464;28;20025;-83
2022/09/16 00:24:53;;;;;;;2.97;0.77;;;15.80;92.30;;;;;;5036548;28;20033;-83
2022/09/16 00:27:18;;;;;;;2.95;0.65;;;15.80;92.40;;;;;;5007616;28;20358;-82
2022/09/16 00:29:44;;;;;;;3.90;1.33;;;15.80;92.70;;;;;;5018867;28;20025;-83
2022/09/16 00:32:10;;;;;;;3.28;1.17;;;15.90;92.50;;;;;;5019355;28;20026;-82
2022/09/16 00:34:35;;;;;;;2.75;0.80;;;15.90;92.50;;;;;;5018779;28;20167;-82
2022/09/16 00:37:06;;;;;;;4.00;1.05;;;15.90;92.50;;;;;;5003558;28;20029;-84
2022/09/16 00:39:34;;;;;;;3.05;1.15;;;15.90;92.50;;;;;;5018943;28;20033;-83
2022/09/16 00:42:01;;;;;;;3.20;0.90;;;15.90;92.60;;;;;;5019689;28;20040;-83
2022/09/16 00:44:52;;;;;;;5.55;1.30;;;15.90;92.70;;;;;;5019083;28;20033;-82
2022/09/16 00:47:23;;;;;;;3.28;1.05;;;15.90;92.70;;;;;;5018570;28;20083;-82
2022/09/16 00:49:50;;;;;;;4.63;1.20;;;16.00;92.70;;;;;;5021298;28;20044;-83
2022/09/16 00:52:17;;;;;;;3.08;1.23;;;16.00;92.70;;;;;;5028032;28;20031;-83
2022/09/16 00:54:44;;;;;;;4.38;1.20;;;15.90;92.70;;;;;;5022425;28;20055;-82
2022/09/16 00:57:12;;;;;;;4.10;0.90;;;16.00;92.70;;;;;;5041744;28;20025;-84
2022/09/16 00:59:42;;;;;;;3.67;1.05;;;16.00;92.70;;;;;;5056558;28;20040;-83
2022/09/16 01:02:16;;;;;;;3.28;1.33;;;16.00;92.70;;;;;;5041181;28;20457;-83
2022/09/16 01:05:01;;;;;;;2.50;0.90;;;16.00;92.60;;;;;;5037813;28;20044;-85
2022/09/16 01:07:57;;;;;;;3.72;1.00;;;16.00;92.70;;;;;;5042455;28;20014;-80
2022/09/16 01:10:25;;;;;;;3.33;1.00;;;16.00;92.70;;;;;;5011265;28;20098;-82
2022/09/16 01:13:00;;;;;;;4.15;1.30;;;16.00;92.70;;;;;;5030001;28;20053;-81
2022/09/16 01:15:40;;;;;;;2.33;0.95;;;16.00;93.00;;;;;;5018720;28;20021;-83
2022/09/16 01:18:33;;;;;;;3.45;0.95;;;16.00;92.70;;;;;;5018625;28;20381;-83
2022/09/16 01:21:25;;;;;;;3.45;1.23;;;16.00;92.70;;;;;;5018679;28;20036;-83
2022/09/16 01:24:19;;;;;;;3.50;1.25;;;16.00;92.60;;;;;;5018174;28;20076;-82
2022/09/16 01:27:17;;;;;;;3.25;0.77;;;16.00;92.60;;;;;;5018117;28;20033;-82
2022/09/16 01:30:08;;;;;;;3.58;1.30;;;16.00;92.60;;;;;;5024117;28;20078;-83
2022/09/16 01:32:46;;;;;;;3.00;1.10;;;16.00;92.50;;;;;;5037502;28;20029;-87
2022/09/16 01:35:44;;;;;;;4.78;1.45;;;16.00;92.50;;;;;;5037868;28;20021;-82
2022/09/16 01:38:41;;;;;;;3.22;0.90;;;16.00;92.50;;;;;;5018500;28;20086;-83
2022/09/16 01:41:37;;;;;;;2.65;1.17;;;16.00;92.50;;;;;;5037638;28;20025;-82
2022/09/16 01:44:18;;;;;;;3.53;1.10;;;16.00;92.60;;;;;;5051177;28;20476;-83
2022/09/16 01:47:03;;;;;;;5.70;1.02;;;16.00;92.50;;;;;;5016949;28;20052;-82
2022/09/16 01:49:55;;;;;;;3.63;1.10;;;16.00;92.50;;;;;;5017166;28;20021;-82
2022/09/16 01:52:32;;;;;;;2.13;0.82;;;16.00;92.50;;;;;;5017320;28;20053;-83
2022/09/16 01:55:07;;;;;;;4.15;1.00;;;16.00;92.60;;;;;;5025992;28;20025;-83
2022/09/16 01:57:41;;;;;;;2.85;1.17;;;15.90;92.50;;;;;;5037243;28;20021;-83
2022/09/16 02:00:10;;;;;;;4.25;1.05;;;16.00;92.50;;;;;;5054756;28;20024;-84
2022/09/16 02:02:44;;;;;;;2.65;1.05;;;16.00;92.50;;;;;;5036424;28;20025;-84
2022/09/16 02:05:45;;;;;;;3.80;0.90;;;16.00;92.50;;;;;;5036954;28;20025;-84
2022/09/16 02:08:18;;;;;;;3.05;0.85;;;16.00;92.50;;;;;;5020339;28;20037;-83
2022/09/16 02:10:49;;;;;;;2.55;0.80;;;16.00;92.50;;;;;;5036929;28;20029;-83
2022/09/16 02:13:41;;;;;;;3.58;1.05;;;16.00;92.50;;;;;;5055023;28;20021;-81
2022/09/16 02:16:14;;;;;;;4.10;1.25;;;15.90;92.50;;;;;;5035796;28;20032;-83
2022/09/16 02:18:45;;;;;;;2.72;0.80;;;15.90;92.50;;;;;;5039355;28;20040;-85
2022/09/16 02:21:14;;;;;;;3.50;1.00;;;15.90;92.50;;;;;;5016888;28;20025;-83
2022/09/16 02:23:52;;;;;;;3.90;0.98;;;15.90;92.50;;;;;;5033879;28;20068;-88
2022/09/16 02:26:21;;;;;;;2.28;0.85;;;15.80;92.60;;;;;;5016756;28;20049;-84
2022/09/16 02:28:50;;;;;;;3.10;0.90;;;15.80;92.60;;;;;;5016812;28;20029;-82
2022/09/16 02:31:22;;;;;;;2.85;1.05;;;15.80;92.60;;;;;;5016045;28;20477;-84
2022/09/16 02:34:18;;;;;;;2.45;0.90;;;15.80;92.60;;;;;;5000898;28;20410;-83
2022/09/16 02:36:51;;;;;;;2.65;0.90;;;15.90;92.60;;;;;;5021633;28;20037;-83
2022/09/16 02:39:26;;;;;;;3.95;1.10;;;15.80;92.50;;;;;;5016513;28;20052;-82
2022/09/16 02:41:54;;;;;;;3.40;1.20;;;15.90;92.50;;;;;;5034021;28;20462;-83
2022/09/16 02:44:20;;;;;;;7.30;1.23;;;15.90;92.50;;;;;;4997677;28;20501;-83
2022/09/16 02:46:48;;;;;;;1.48;0.90;;;15.90;92.50;;;;;;4993615;28;20144;-83
2022/09/16 02:49:43;;;;;;;2.50;0.93;;;15.80;92.60;;;;;;5006280;28;20045;-83
2022/09/16 02:52:19;;;;;;;1.38;0.60;;;15.80;92.60;;;;;;5021389;28;20041;-81
2022/09/16 02:55:03;;;;;;;3.75;1.25;;;15.80;92.50;;;;;;5020736;28;20057;-82
2022/09/16 02:57:30;;;;;;;4.60;1.20;;;15.80;92.50;;;;;;5039655;28;20053;-81
2022/09/16 02:59:57;;;;;;;4.25;1.10;;;15.80;92.50;;;;;;5056375;28;20036;-82
2022/09/16 03:02:22;;;;;;;4.00;1.02;;;15.80;92.70;;;;;;5000783;28;20030;-82
2022/09/16 03:04:48;;;;;;;2.78;1.10;;;15.80;92.50;;;;;;5016368;28;20032;-83
2022/09/16 03:07:15;;;;;;;2.22;0.75;;;15.80;92.50;;;;;;5033424;28;20055;-85
2022/09/16 03:09:44;;;;;;;2.67;0.82;;;15.80;92.50;;;;;;5015494;28;20409;-83
2022/09/16 03:12:31;;;;;;;3.33;1.02;;;15.70;92.50;;;;;;5016049;28;20402;-83
2022/09/16 03:15:20;;;;;;;3.17;0.90;;;15.80;92.50;;;;;;5016151;28;20033;-83
2022/09/16 03:17:51;;;;;;;3.05;1.00;;;15.70;92.50;;;;;;5015993;28;20087;-83
2022/09/16 03:20:20;;;;;;;3.83;1.10;;;15.70;92.60;;;;;;5032144;28;20430;-84
2022/09/16 03:23:02;;;;;;;5.10;1.15;;;15.70;92.60;;;;;;5015685;28;20112;-82
2022/09/16 03:25:38;;;;;;;2.97;0.80;;;15.70;92.60;;;;;;5016182;28;20108;-84
2022/09/16 03:28:14;;;;;;;2.65;1.00;;;15.70;92.60;;;;;;5015865;28;20160;-83
2022/09/16 03:30:52;;;;;;;4.43;1.52;;;15.70;92.60;;;;;;5016120;28;20014;-83
2022/09/16 03:33:45;;;;;;;1.50;0.93;;;15.60;92.60;;;;;;5010175;28;20373;-84
2022/09/16 03:36:15;;;;;;;2.97;0.70;;;15.60;92.60;;;;;;5013244;28;20037;-83
2022/09/16 03:38:42;;;;;;;4.43;1.27;;;15.60;92.70;;;;;;5013650;28;20034;-83
2022/09/16 03:41:09;;;;;;;3.28;1.02;;;15.60;92.70;;;;;;4964615;28;20030;-84
2022/09/16 03:43:37;;;;;;;2.00;1.00;;;15.60;92.70;;;;;;4998174;28;20389;-84
2022/09/16 03:46:09;;;;;;;2.60;1.08;;;15.60;92.70;;;;;;4992044;28;20141;-84
2022/09/16 03:48:35;;;;;;;4.82;1.30;;;15.60;92.70;;;;;;4996349;28;20026;-82
2022/09/16 03:51:01;;;;;;;3.00;1.10;;;15.60;92.80;;;;;;4979718;28;20030;-83
2022/09/16 03:53:26;;;;;;;4.75;1.10;;;15.60;92.80;;;;;;4980441;28;20030;-84
2022/09/16 03:55:52;;;;;;;5.55;1.20;;;15.50;92.90;;;;;;4979528;28;20049;-81
2022/09/16 03:58:18;;;;;;;3.78;1.10;;;15.60;92.90;;;;;;4997688;28;20026;-83
2022/09/16 04:00:49;;;;;;;3.33;1.10;;;15.50;92.90;;;;;;4984405;28;20137;-83
2022/09/16 04:03:16;;;;;;;3.15;1.30;;;15.50;93.00;;;;;;5000715;28;20427;-83
2022/09/16 04:05:42;;;;;;;4.20;1.05;;;15.50;92.90;;;;;;5000310;28;20076;-83
2022/09/16 04:08:07;;;;;;;4.38;1.10;;;15.50;93.00;;;;;;4983706;28;20034;-83
2022/09/16 04:10:33;;;;;;;4.65;1.08;;;15.60;93.10;;;;;;5001298;28;20037;-83
2022/09/16 04:12:59;;;;;;;3.50;1.33;;;15.50;93.10;;;;;;5019544;28;20037;-83
2022/09/16 04:15:25;;;;;;;3.25;1.20;;;15.50;93.10;;;;;;5019190;28;20040;-83
2022/09/16 04:17:51;;;;;;;3.00;1.27;;;15.50;93.20;;;;;;5018824;28;20462;-83
2022/09/16 04:20:17;;;;;;;3.42;0.98;;;15.50;93.20;;;;;;5003017;28;20036;-83
2022/09/16 04:22:44;;;;;;;2.33;1.05;;;15.50;93.20;;;;;;5034806;28;20034;-82
2022/09/16 04:25:10;;;;;;;3.35;1.33;;;15.60;93.30;;;;;;5019210;28;20029;-83
2022/09/16 04:27:35;;;;;;;3.28;1.10;;;15.60;93.30;;;;;;5019791;28;20022;-83
2022/09/16 04:30:01;;;;;;;3.47;1.20;;;15.60;93.30;;;;;;5019882;28;20504;-83
2022/09/16 04:32:28;;;;;;;4.90;1.52;;;15.60;93.30;;;;;;5003245;28;20040;-82
2022/09/16 04:34:54;;;;;;;2.72;1.00;;;15.60;93.40;;;;;;5036574;28;20037;-82
2022/09/16 04:37:20;;;;;;;5.35;1.98;;;15.60;93.40;;;;;;5032322;28;20010;-84
2022/09/16 04:39:46;;;;;;;3.15;0.95;;;15.50;93.40;;;;;;5027047;28;20093;-84
2022/09/16 04:42:12;;;;;;;3.70;1.30;;;15.60;93.40;;;;;;5042223;28;20029;-83
2022/09/16 04:44:38;;;;;;;3.97;1.20;;;15.60;93.40;;;;;;5042619;28;20048;-82
2022/09/16 04:47:04;;;;;;;5.55;1.27;;;15.50;93.40;;;;;;5002607;28;20108;-83
2022/09/16 04:49:31;;;;;;;4.15;0.90;;;15.60;93.40;;;;;;4982752;28;20034;-83
2022/09/16 04:51:59;;;;;;;2.85;1.10;;;15.60;93.30;;;;;;4983187;28;20034;-85
2022/09/16 04:54:25;;;;;;;2.88;0.85;;;15.60;93.40;;;;;;4999187;28;20025;-84
2022/09/16 04:56:51;;;;;;;2.17;0.75;;;15.60;93.30;;;;;;4967143;28;20022;-84
2022/09/16 04:59:20;;;;;;;3.30;0.98;;;15.50;93.30;;;;;;4967523;28;20038;-84
2022/09/16 05:01:46;;;;;;;1.10;0.70;;;15.50;93.30;;;;;;4999462;28;20036;-83
2022/09/16 05:04:13;;;;;;;2.28;0.80;;;15.50;93.20;;;;;;4998808;28;20034;-83
2022/09/16 05:06:40;;;;;;;3.22;0.95;;;15.50;93.20;;;;;;4998129;28;20038;-83
2022/09/16 05:09:07;;;;;;;2.88;0.82;;;15.60;93.20;;;;;;4982054;28;20026;-83
2022/09/16 05:11:35;;;;;;;3.28;1.02;;;15.50;93.20;;;;;;5010409;28;20032;-83
2022/09/16 05:14:05;;;;;;;2.97;0.95;;;15.50;93.20;;;;;;5002359;28;20037;-86
2022/09/16 05:16:40;;;;;;;5.40;1.20;;;15.50;93.30;;;;;;5002378;28;20050;-86
2022/09/16 05:19:06;;;;;;;3.67;1.38;;;15.40;93.30;;;;;;5036393;28;20025;-84
2022/09/16 05:21:36;;;;;;;3.13;1.30;;;15.50;93.30;;;;;;4982810;28;20045;-81
2022/09/16 05:24:06;;;;;;;1.38;0.82;;;15.50;93.20;;;;;;5013510;28;20045;-83
2022/09/16 05:26:34;;;;;;;3.25;0.77;;;15.40;93.20;;;;;;4997998;28;20033;-83
2022/09/16 05:29:06;;;;;;;2.63;0.85;;;15.40;93.20;;;;;;4981863;28;20030;-83
2022/09/16 05:31:35;;;;;;;3.58;0.93;;;15.40;93.20;;;;;;5015379;28;20069;-83
2022/09/16 05:34:20;;;;;;;4.60;1.17;;;15.40;93.20;;;;;;5001250;28;20149;-82
2022/09/16 05:36:48;;;;;;;4.15;1.02;;;15.40;93.20;;;;;;5015462;28;20034;-83
2022/09/16 05:39:17;;;;;;;3.08;0.93;;;15.40;93.20;;;;;;5015008;28;20113;-82
2022/09/16 05:41:43;;;;;;;3.22;0.93;;;15.40;93.20;;;;;;4997373;28;20037;-82
2022/09/16 05:44:09;;;;;;;1.35;0.52;;;15.40;93.20;;;;;;4997292;28;20038;-84
2022/09/16 05:46:39;;;;;;;3.80;1.10;;;15.40;93.20;;;;;;5005082;28;20419;-84
2022/09/16 05:49:06;;;;;;;1.88;0.70;;;15.40;93.10;;;;;;5007291;28;20051;-84
2022/09/16 05:51:31;;;;;;;1.98;0.90;;;15.30;93.10;;;;;;5000754;28;20041;-84
2022/09/16 05:53:58;;;;;;;1.67;0.65;;;15.30;93.10;;;;;;5017059;28;20037;-84
2022/09/16 05:56:26;;;;;;;2.72;0.80;;;15.30;93.10;;;;;;5034676;28;20057;-84
2022/09/16 05:58:57;;;;;;;3.08;1.27;;;15.30;93.00;;;;;;5016775;28;20029;-84
2022/09/16 06:01:24;;;;;;;;;;;15.20;93.00;;;;;;5017826;28;20087;-83
2022/09/16 06:03:51;;;;;;;3.20;0.90;;;15.20;93.00;;;;;;5017388;28;19913;-83
2022/09/16 06:06:24;;;;;;;2.28;0.85;;;15.20;93.00;;;;;;5000791;28;20033;-82
2022/09/16 06:08:54;;;;;;;3.00;0.80;;;15.30;92.90;;;;;;5017328;28;20021;-84
2022/09/16 06:11:27;;;;;;;3.22;0.85;;;15.20;92.90;;;;;;5016378;28;20017;-83
2022/09/16 06:13:58;;;;;;;2.55;1.00;;;15.20;92.90;;;;;;5034416;28;20042;-85
2022/09/16 06:16:26;;;;;;;1.95;0.65;;;15.20;92.90;;;;;;5018230;28;20025;-83
2022/09/16 06:18:53;;;;;;;2.97;0.80;;;15.30;93.00;;;;;;5018283;28;20465;-84
2022/09/16 06:21:18;;;;;;;3.30;0.70;;;15.30;93.00;;;;;;5030287;28;20090;-85
2022/09/16 06:23:44;;;;;;;3.38;0.75;;;15.20;93.00;;;;;;5044365;28;20040;-82
2022/09/16 06:26:16;;;;;;;2.83;0.82;;;15.20;93.00;;;;;;5059771;28;20085;-83
2022/09/16 06:28:42;;;;;;;1.63;0.50;;;15.20;93.00;;;;;;5060736;28;20036;-82
2022/09/16 06:31:17;;;;;;;2.88;0.90;;;15.20;93.00;;;;;;5060263;28;20021;-80
2022/09/16 06:33:43;;;;;;;1.30;1.00;;;15.20;93.10;;;;;;5017881;28;20037;-83
2022/09/16 06:36:11;;;;;;;2.83;1.23;;;15.20;93.10;;;;;;5016875;28;20034;-85
2022/09/16 06:38:38;;;;;;;3.20;0.85;;;15.20;93.10;;;;;;5017219;28;20037;-82
2022/09/16 06:41:30;;;;;;;2.58;1.00;;;15.20;93.10;;;;;;5000630;28;20103;-83
2022/09/16 06:43:56;;;;;;;3.15;0.90;;;15.30;93.10;;;;;;5049839;28;20038;-83
2022/09/16 06:46:27;;;;;;;2.15;0.73;;;15.30;93.00;;;;;;5021304;28;20028;-83
2022/09/16 06:48:56;;;;;;;2.85;0.70;;;15.20;93.00;;;;;;4997270;28;20037;-83
2022/09/16 06:51:24;;;;;;;3.55;0.82;;;15.20;93.10;;;;;;4996031;28;20061;-84
2022/09/16 06:53:51;;;;;;;2.63;0.90;;;15.20;93.10;;;;;;5014420;28;20120;-82
2022/09/16 06:56:19;;;;;;;2.47;0.80;;;15.20;93.10;;;;;;4964090;28;20466;-82
2022/09/16 06:58:47;;;;;;;2.40;0.70;;;15.20;93.10;;;;;;4996574;28;20037;-82
2022/09/16 07:01:19;;;;;;;4.20;0.90;;;15.20;93.10;;;;;;5013544;28;20112;-82
2022/09/16 07:03:48;;;;;;;3.67;1.05;;;15.20;93.20;;;;;;4996581;28;20049;-82
2022/09/16 07:06:17;;;;;;;2.40;0.63;;;15.30;93.20;;;;;;4998301;28;20026;-84
2022/09/16 07:08:50;;;;;;;3.92;0.90;;;15.30;93.30;;;;;;4998126;28;20092;-83
2022/09/16 07:11:20;;;;;;;1.95;0.88;;;15.40;93.30;;;;;;5016677;28;20022;-83
2022/09/16 07:13:47;;;;;;;1.85;0.85;;;15.40;93.30;;;;;;5033712;28;20021;-83
2022/09/16 07:16:17;;;;;;;1.60;0.73;;;15.40;93.30;;;;;;5015792;28;20033;-86
2022/09/16 07:18:47;;;;;;;3.33;1.08;;;15.50;93.30;;;;;;5014636;28;20033;-81
2022/09/16 07:21:18;;;;;;;2.63;0.83;;;15.50;93.40;;;;;;5001699;28;20026;-83
2022/09/16 07:23:44;;;;;;;;;;;15.50;93.40;;;;;;5016975;28;20072;-83
2022/09/16 07:26:25;;;;;;;4.28;1.10;;;15.60;93.40;;;;;;5016301;28;20262;-81
2022/09/16 07:28:59;;;;;;;3.97;0.90;;;15.60;93.40;;;;;;4998416;28;20091;-83
2022/09/16 07:31:31;;;;;;;1.40;0.70;;;15.70;93.40;;;;;;5016130;28;20041;-82
2022/09/16 07:34:00;;;;;;;4.00;0.82;;;15.70;93.30;;;;;;5020452;28;20021;-83
2022/09/16 07:36:34;;;;;;;2.35;0.65;;;15.70;93.30;;;;;;5003510;28;20535;-83
2022/09/16 07:39:01;;;;;;;2.75;0.85;;;15.70;93.30;;;;;;5004011;28;20061;-84
2022/09/16 07:41:29;;;;;;;2.90;1.05;;;15.80;93.40;;;;;;5013307;28;20026;-82
2022/09/16 07:43:57;;;;;;;1.48;0.73;;;15.80;93.30;;;;;;4999552;28;20045;-84
2022/09/16 07:46:26;;;;;;;2.20;0.82;;;15.90;93.30;;;;;;5000204;28;20472;-83
2022/09/16 07:48:57;;;;;;;2.28;0.60;;;15.90;93.30;;;;;;4999651;28;20045;-83
2022/09/16 07:51:26;;;;;;;3.13;0.57;;;16.00;93.20;;;;;;4983799;28;20038;-83
2022/09/16 07:53:58;;;;;;;3.70;0.90;;;16.00;93.20;;;;;;4985099;28;20054;-83
2022/09/16 07:56:30;;;;;;;3.35;0.80;;;16.10;93.10;;;;;;5017827;28;20410;-83
2022/09/16 07:58:56;;;;;;;2.35;0.80;;;16.10;93.00;;;;;;4984084;28;20033;-82
2022/09/16 08:01:22;;;;;;;2.03;0.60;;;16.10;92.90;;;;;;4983764;28;20041;-82
2022/09/16 08:03:48;;;;;;;2.38;0.82;;;16.20;92.80;;;;;;4984753;28;20120;-83
2022/09/16 08:06:20;;;;;;;5.10;0.90;;;16.20;92.60;;;;;;5004825;28;20121;-83
2022/09/16 08:08:46;;;;;;;1.77;0.63;;;16.20;92.50;;;;;;5036626;28;20033;-83
2022/09/16 08:11:14;;;;;;;1.67;0.68;;;16.20;92.20;;;;;;5023335;28;20018;-80
2022/09/16 08:13:41;;;;;;;3.03;0.55;;;16.20;92.10;;;;;;5023543;28;20017;-81
2022/09/16 08:16:11;;;;;;;3.10;0.90;;;16.20;92.00;;;;;;5040391;28;20037;-83
2022/09/16 08:18:39;;;;;;;2.30;0.80;;;16.30;92.00;;;;;;5053767;28;20030;-82
2022/09/16 08:21:10;;;;;;;4.78;1.10;;;16.30;91.90;;;;;;5023861;28;20089;-83
2022/09/16 08:23:42;;;;;;;3.55;0.77;;;16.40;91.80;;;;;;5018593;28;20359;-84
2022/09/16 08:26:11;;;;;;;2.88;0.77;;;16.40;91.70;;;;;;5019733;28;20030;-82
2022/09/16 08:28:39;;;;;;;2.22;0.60;;;16.40;91.60;;;;;;5002800;28;20022;-83
2022/09/16 08:31:06;;;;;;;2.22;0.60;;;16.40;91.60;;;;;;5000239;28;20088;-84
2022/09/16 08:33:34;;;;;;;1.75;0.47;;;16.40;91.90;;;;;;4998646;28;20390;-82
2022/09/16 08:36:03;;;;;;;1.83;0.65;;;16.50;91.50;;;;;;4999244;28;20049;-82
2022/09/16 08:38:30;;;;;;;2.92;0.55;;;16.50;91.40;;;;;;5016382;28;20022;-83
2022/09/16 08:41:17;;;;;;;2.50;0.80;;;16.50;91.40;;;;;;4994918;28;20033;-83
2022/09/16 08:44:01;;;;;;;5.03;1.17;;;16.60;91.30;;;;;;5017903;28;20033;-83
2022/09/16 08:46:39;;;;;;;2.97;0.88;;;16.60;91.30;;;;;;5022164;28;20053;-83
2022/09/16 08:49:43;;;;;;;3.05;0.80;;;16.70;91.20;;;;;;5038300;28;20033;-83
2022/09/16 08:52:46;;;;;;;1.52;0.63;;;16.70;91.20;;;;;;4939138;29;20031;-83
2022/09/16 08:55:14;;;;;;;4.35;0.70;;;16.80;91.10;;;;;;5018803;28;20021;-84
2022/09/16 08:57:52;;;;;;;2.70;0.80;;;16.80;91.10;;;;;;5002421;28;20355;-83
2022/09/16 09:00:19;;;;;;;1.60;0.70;;;16.90;91.20;;;;;;5018291;28;20052;-83
2022/09/16 09:03:01;;;;;;;2.30;0.80;;;16.90;91.20;;;;;;5018265;28;20082;-84
2022/09/16 09:05:48;;;;;;;3.95;0.93;;;17.00;90.90;;;;;;5018184;28;20060;-82
2022/09/16 09:08:44;;;;;;;1.98;0.80;;;17.10;90.70;;;;;;5018620;28;20029;-82
2022/09/16 09:11:40;;;;;;;1.48;0.52;;;17.20;90.60;;;;;;5004325;28;20460;-82
2022/09/16 09:14:33;;;;;;;3.10;0.95;;;17.30;90.50;;;;;;5018084;28;20121;-83
2022/09/16 09:17:05;;;;;;;3.65;0.77;;;17.30;89.30;;;;;;5018299;28;20039;-83
2022/09/16 09:19:52;;;;;;;0.73;0.45;;;17.20;89.40;;;;;;5035549;28;20485;-82
2022/09/16 09:22:46;;;;;;;1.10;0.70;;;17.20;89.10;;;;;;5018017;28;20036;-82
2022/09/16 09:25:52;;;;;;;0.50;0.30;;;17.20;86.40;;;;;;5028181;28;20071;-83
2022/09/16 09:28:48;;;;;;;1.48;0.32;;;17.10;85.10;;;;;;5037248;28;20033;-83
2022/09/16 09:31:25;;;;;;;1.05;0.40;;;17.00;84.90;;;;;;5036345;28;20033;-82
2022/09/16 09:34:08;;;;;;;0.73;0.30;;;17.00;83.90;;;;;;5036989;28;20116;-81
2022/09/16 09:37:13;;;;;;;1.17;0.50;;;17.00;84.00;;;;;;5055314;28;20032;-82
2022/09/16 09:40:07;;;;;;;0.55;0.30;;;17.00;83.90;;;;;;5037795;28;20025;-82
2022/09/16 09:42:47;;;;;;;0.82;0.40;;;17.10;83.70;;;;;;5035641;28;20052;-83
2022/09/16 09:45:37;;;;;;;0.95;0.40;;;17.20;84.00;;;;;;5002985;28;20139;-83
2022/09/16 09:48:28;;;;;;;2.08;0.40;;;17.20;84.20;;;;;;5000789;28;20513;-83
2022/09/16 09:50:58;;;;;;;3.22;0.70;;;17.30;83.20;;;;;;5015548;28;20021;-82
2022/09/16 09:53:38;;;;;;;1.90;0.60;;;17.30;83.40;;;;;;5017706;28;20473;-83
2022/09/16 09:56:23;;;;;;;1.67;0.43;;;17.40;83.50;;;;;;5049190;28;20100;-81
2022/09/16 09:59:25;;;;;;;1.30;0.63;;;17.50;83.80;;;;;;5040342;28;20059;-83
2022/09/16 10:01:55;;;;;;;4.88;0.70;;;17.50;83.70;;;;;;5040645;28;20021;-79
2022/09/16 10:04:21;;;;;;;1.65;0.40;;;17.60;83.00;;;;;;5041590;28;20028;-80
2022/09/16 10:06:50;;;;;;;2.40;0.80;;;17.60;82.50;;;;;;5047240;28;20033;-82
2022/09/16 10:09:17;;;;;;;3.17;0.68;;;17.60;82.40;;;;;;5006438;28;20045;-82
2022/09/16 10:11:53;;;;;;;1.02;0.50;;;17.60;82.40;;;;;;4998273;28;20018;-81
2022/09/16 10:14:35;;;;;;;2.42;0.60;;;17.70;81.90;;;;;;4997786;28;20022;-82
2022/09/16 10:17:12;;;;;;;2.50;0.70;;;17.70;80.50;;;;;;4981446;28;20096;-81
2022/09/16 10:19:51;;;;;;;2.45;0.82;;;17.60;80.70;;;;;;4982094;28;20038;-82
2022/09/16 10:22:31;;;;;;;1.15;0.60;;;17.60;80.70;;;;;;4997414;28;20026;-82
2022/09/16 10:25:19;;;;;;;1.27;0.55;;;17.60;81.30;;;;;;5014508;28;20378;-82
2022/09/16 10:27:59;;;;;;;2.05;0.60;;;17.60;81.00;;;;;;4997160;28;20022;-81
2022/09/16 10:30:28;;;;;;;3.28;0.80;;;17.70;80.70;;;;;;4997086;28;20031;-82
2022/09/16 10:33:20;;;;;;;2.17;0.70;;;17.70;80.80;;;;;;4997082;28;20497;-82
2022/09/16 10:36:16;;;;;;;1.73;0.65;;;17.80;80.20;;;;;;4983760;28;20034;-80
2022/09/16 10:38:47;;;;;;;1.30;0.50;;;17.80;79.50;;;;;;4994629;28;20397;-82
2022/09/16 10:41:27;;;;;;;1.58;0.50;;;17.80;78.90;;;;;;4997121;28;20438;-84
2022/09/16 10:44:17;;;;;;;0.98;0.50;;;17.80;78.70;;;;;;5033462;28;20099;-83
2022/09/16 10:47:01;;;;;;;2.38;0.65;;;17.90;79.30;;;;;;5019852;28;20105;-83
2022/09/16 10:49:37;;;;;;;1.13;0.30;;;18.00;79.60;;;;;;5034279;28;20052;-84
2022/09/16 10:52:21;;;;;;;1.85;0.60;;;18.10;79.60;;;;;;5016799;28;20025;-82
2022/09/16 10:54:48;;;;;;;2.25;0.80;;;18.10;79.40;;;;;;5016893;28;20113;-84
2022/09/16 10:57:40;;;;;;;2.28;0.70;;;18.20;79.00;;;;;;5000572;28;20038;-82
2022/09/16 11:00:10;;;;;;;2.33;0.77;;;18.30;78.90;;;;;;5034775;28;20029;-82
2022/09/16 11:03:06;;;;;;;1.08;0.50;;;18.40;77.60;;;;;;5034885;28;20017;-82
2022/09/16 11:05:48;;;;;;;2.35;0.50;;;18.50;77.10;;;;;;5016700;28;20128;-82
2022/09/16 11:08:41;;;;;;;1.45;0.60;;;18.60;75.30;;;;;;5017833;28;20052;-82
2022/09/16 11:12:04;;;;;;;1.83;0.57;;;18.50;74.90;;;;;;5034575;28;20041;-83
2022/09/16 11:14:50;;;;;;;2.22;0.70;;;18.50;75.30;;;;;;4937123;29;20122;-83
2022/09/16 11:17:35;;;;;;;2.95;0.73;;;18.40;76.50;;;;;;4953709;29;20055;-83
2022/09/16 11:20:21;;;;;;;1.60;0.77;;;18.50;77.10;;;;;;4995306;28;20045;-83
2022/09/16 11:22:52;;;;;;;2.78;0.70;;;18.40;75.90;;;;;;5016538;28;20025;-83
2022/09/16 11:25:25;;;;;;;3.60;0.77;;;18.20;76.10;;;;;;5016800;28;20436;-84
2022/09/16 11:28:22;;;;;;;1.58;0.68;;;18.10;76.40;;;;;;5016565;28;20022;-82
2022/09/16 11:31:02;;;;;;;2.95;0.93;;;18.00;76.00;;;;;;5013600;28;20056;-82
2022/09/16 11:33:46;;;;;;;0.98;0.30;;;17.80;75.60;;;;;;5016945;28;20025;-84
2022/09/16 11:36:30;;;;;;;2.47;0.77;;;17.70;75.90;;;;;;5017170;28;20029;-82
2022/09/16 11:39:37;;;;;;;2.63;0.70;;;17.70;75.70;;;;;;5021031;28;20039;-85
2022/09/16 11:42:17;;;;;;;2.35;0.60;;;17.80;75.50;;;;;;4937244;29;20610;-86
2022/09/16 11:45:04;;;;;;;3.10;1.35;;;17.80;75.90;;;;;;4939414;29;20515;-87
2022/09/16 11:47:57;;;;;;;2.83;0.70;;;17.90;76.10;;;;;;4997176;28;20041;-83
2022/09/16 11:50:57;;;;;;;1.95;0.60;;;17.90;75.80;;;;;;5037475;28;20044;-84
2022/09/16 11:53:54;;;;;;;2.00;0.43;;;18.00;75.90;;;;;;5059243;28;20071;-82
2022/09/16 11:56:40;;;;;;;1.20;0.50;;;18.10;75.60;;;;;;5059178;28;20009;-83
2022/09/16 11:59:30;;;;;;;2.45;0.45;;;18.10;75.40;;;;;;5075164;28;20044;-82
2022/09/16 12:02:20;;;;;;;1.48;0.52;;;18.20;75.50;;;;;;5036426;28;20021;-84
2022/09/16 12:05:11;;;;;;;1.60;0.60;;;18.20;74.20;;;;;;5035450;28;20067;-83
2022/09/16 12:07:56;;;;;;;;;;;18.20;74.00;;;;;;5036569;28;20029;-83
2022/09/16 12:10:46;;;;;;;1.88;0.45;;;18.10;73.50;;;;;;5035943;28;19905;-83
2022/09/16 12:13:57;;;;;;;2.53;0.70;;;18.10;73.90;;;;;;5053771;28;20467;-82
2022/09/16 12:16:48;;;;;;;;;;;18.00;72.50;;;;;;5022378;28;20030;-83
2022/09/16 12:19:47;;;;;;;3.53;0.70;;;18.00;73.00;;;;;;5009961;28;19999;-83
2022/09/16 12:22:36;;;;;;;1.20;0.65;;;18.00;73.10;;;;;;5002343;28;20124;-83
2022/09/16 12:25:40;;;;;;;1.48;0.82;;;18.10;73.40;;;;;;5016992;28;20037;-82
2022/09/16 12:28:17;;;;;;;2.58;0.70;;;18.20;73.60;;;;;;4945857;28;20493;-83
2022/09/16 12:31:17;;;;;;;1.95;0.75;;;18.20;73.50;;;;;;5039471;28;20037;-82
2022/09/16 12:33:51;;;;;;;1.73;0.70;;;18.20;74.00;;;;;;5056964;28;20070;-82
2022/09/16 12:36:24;;;;;;;2.22;0.70;;;18.20;74.20;;;;;;5057168;28;20070;-82
2022/09/16 12:38:49;;;;;;;1.55;0.77;;;18.20;74.60;;;;;;5037792;28;20025;-82
2022/09/16 12:41:51;;;;;;;2.30;0.60;;;18.20;75.00;;;;;;5056536;28;20032;-82
2022/09/16 12:44:29;;;;;;;2.85;0.68;;;18.20;75.60;;;;;;5039786;28;20051;-83
2022/09/16 12:47:36;;;;;;;4.75;0.95;;;18.30;76.10;;;;;;5038814;28;20052;-83
2022/09/16 12:50:33;;;;;;;2.35;0.80;;;18.30;76.50;;;;;;5039985;28;20512;-83
2022/09/16 12:53:37;;;;;;;1.58;0.77;;;18.30;76.70;;;;;;5046289;28;20022;-85
2022/09/16 12:56:34;;;;;;;2.50;0.80;;;18.30;77.10;;;;;;5040843;28;20532;-87
2022/09/16 12:59:22;;;;;;;1.55;0.65;;;18.30;77.70;;;;;;5057401;28;20150;-86
2022/09/16 13:02:09;;;;;;;1.75;0.60;;;18.30;78.00;;;;;;5035666;28;20026;-86
2022/09/16 13:04:58;;;;;;;2.47;0.73;;;18.30;78.20;;;;;;5038477;28;20554;-85
2022/09/16 13:07:34;;;;;;;4.13;1.00;;;18.40;78.40;;;;;;5019612;28;20116;-85
2022/09/16 13:10:06;;;;;;;3.55;0.93;;;18.40;78.30;;;;;;5004384;28;20037;-85
2022/09/16 13:12:33;;;;;;;3.40;0.70;;;18.40;78.20;;;;;;5025122;28;20028;-85
2022/09/16 13:15:01;;;;;;;2.03;1.00;;;18.40;78.10;;;;;;5039102;28;20029;-85
2022/09/16 13:17:51;;;;;;;1.63;0.70;;;18.40;78.40;;;;;;5039522;28;20017;-85
2022/09/16 13:20:21;;;;;;;4.65;1.02;;;18.50;78.10;;;;;;5023888;28;20021;-85
2022/09/16 13:22:56;;;;;;;3.95;0.80;;;18.50;77.90;;;;;;5037127;28;20028;-84
2022/09/16 13:25:29;;;;;;;4.10;1.08;;;18.50;77.40;;;;;;5040326;28;20128;-86
2022/09/16 13:28:01;;;;;;;4.70;1.13;;;18.60;77.40;;;;;;5023118;28;20025;-87
2022/09/16 13:30:35;;;;;;;3.50;1.10;;;18.60;77.40;;;;;;5037778;28;20108;-82
2022/09/16 13:33:26;;;;;;;3.58;1.20;;;18.60;76.00;;;;;;5037741;28;20071;-85